This is the latest recevied weather packets stored in our database for station/object IW0HP-3. If no packets are shown the sender has not sent any weather packets the latest 10 day(s).
| Time | Temp. | Humidity | Pressure | Rain* | Wind** | Luminosity | Snow |
|---|---|---|---|---|---|---|---|
| 1777381548 | 22.22° C | 29% | 1016.8 hPa | - | - | - | - |
| 1777380344 | 22.22° C | 32% | 1016.5 hPa | - | - | - | - |
| 1777379140 | 22.22° C | 33% | 1016.4 hPa | - | - | - | - |
| 1777377935 | 22.22° C | 35% | 1016.4 hPa | - | - | - | - |
| 1777375526 | 22.22° C | 34% | 1016.7 hPa | - | - | - | - |
| 1777374321 | 21.67° C | 32% | 1017.1 hPa | - | - | - | - |
| 1777373116 | 21.11° C | 36% | 1016.9 hPa | - | - | - | - |
| 1777369503 | 20.56° C | 36% | 1017.6 hPa | - | - | - | - |
| 1777368299 | 20° C | 43% | 1017.1 hPa | - | - | - | - |
| 1777367094 | 19.44° C | 46% | 1017.2 hPa | - | - | - | - |
| 1777365889 | 18.89° C | 47% | 1017.2 hPa | - | - | - | - |
| 1777364685 | 18.33° C | 51% | 1017.1 hPa | - | - | - | - |
| 1777363481 | 18.33° C | 53% | 1017 hPa | - | - | - | - |
| 1777362276 | 17.78° C | 54% | 1017 hPa | - | - | - | - |
| 1777359867 | 16.67° C | 58% | 1017 hPa | - | - | - | - |
| 1777358663 | 16.11° C | 59% | 1017.1 hPa | - | - | - | - |
| 1777356254 | 15° C | 62% | 1017.2 hPa | - | - | - | - |
| 1777355049 | 14.44° C | 63% | 1017.3 hPa | - | - | - | - |
| 1777353845 | 13.89° C | 64% | 1017.2 hPa | - | - | - | - |
| 1777352640 | 13.89° C | 64% | 1017 hPa | - | - | - | - |
| 1777351435 | 13.89° C | 64% | 1016.9 hPa | - | - | - | - |
| 1777350232 | 13.89° C | 64% | 1016.9 hPa | - | - | - | - |
| 1777347822 | 14.44° C | 63% | 1016.9 hPa | - | - | - | - |
| 1777346617 | 14.44° C | 63% | 1016.9 hPa | - | - | - | - |
| 1777345413 | 14.44° C | 62% | 1016.9 hPa | - | - | - | - |
* Rain since midnight (hover to see other rain measurements)
** Current wind speed in m/s (hover to see current wind gust speed)